Time;durP1;ratioP1;P1;durP2;ratioP2;P2;SDS_P1;SDS_P2;PMS_P1;PMS_P2;Temp;Humidity;BMP_temperature;BMP_pressure;BME280_temperature;BME280_humidity;BME280_pressure;Samples;Min_cycle;Max_cycle;Signal;HPM_P1;HPM_P2
2023/04/03 00:00:26;;;;;;;;;;;;;;;;;;5014133;28;6681;-64
2023/04/03 00:03:12;;;;;;;;;;;;;;;;;;5014546;28;7092;-64
2023/04/03 00:05:37;;;;;;;;;;;;;;;;;;5014629;28;7043;-64
2023/04/03 00:08:13;;;;;;;;;;;;;;;;;;5030422;28;7059;-64
2023/04/03 00:10:39;;;;;;;;;;;;;;;;;;5014613;28;7055;-64
2023/04/03 00:13:06;;;;;;;;;;;;;;;;;;5014493;28;7483;-64
2023/04/03 00:18:33;;;;;;;;;;;;;;;;;;5015305;28;7018;-64
2023/04/03 00:20:58;;;;;;;;;;;;;;;;;;5014505;28;7080;-64
2023/04/03 00:23:24;;;;;;;;;;;;;;;;;;5014492;28;7079;-63
2023/04/03 00:26:22;;;;;;;;;;;;;;;;;;5014196;28;8058;-64
2023/04/03 00:28:48;;;;;;;;;;;;;;;;;;5014592;28;7086;-63
2023/04/03 00:31:31;;;;;;;;;;;;;;;;;;5014963;28;6896;-64
2023/04/03 00:33:58;;;;;;;;;;;;;;;;;;5016884;28;6936;-64
2023/04/03 00:36:55;;;;;;;;;;;;;;;;;;5017595;28;6793;-63
2023/04/03 00:39:21;;;;;;;;;;;;;;;;;;5017544;28;7159;-64
2023/04/03 00:42:25;;;;;;;;;;;;;;;;;;5017888;28;7349;-64
2023/04/03 00:44:57;;;;;;;;;;;;;;;;;;5018122;28;7351;-64
2023/04/03 00:50:26;;;;;;;;;;;;;;;;;;5017449;28;6685;-64
2023/04/03 00:59:17;;;;;;;;;;;;;;;;;;5017063;28;6721;-63
2023/04/03 01:01:42;;;;;;;;;;;;;;;;;;5017465;28;7410;-64
2023/04/03 01:04:27;;;;;;;;;;;;;;;;;;5017998;28;7126;-64
2023/04/03 01:07:13;;;;;;;;;;;;;;;;;;5017347;28;7041;-63
2023/04/03 01:09:40;;;;;;;;;;;;;;;;;;5017333;28;7577;-64
2023/04/03 01:15:00;;;;;;;;;;;;;;;;;;5017312;28;6769;-63
2023/04/03 01:17:35;;;;;;;;;;;;;;;;;;5017158;28;7183;-64
2023/04/03 01:20:18;;;;;;;;;;;;;;;;;;5017299;28;7171;-63
2023/04/03 01:23:02;;;;;;;;;;;;;;;;;;5017129;28;7049;-63
2023/04/03 01:25:29;;;;;;;;;;;;;;;;;;5032181;28;8395;-64
2023/04/03 01:27:55;;;;;;;;;;;;;;;;;;5016999;28;6998;-64
2023/04/03 01:33:23;;;;;;;;;;;;;;;;;;5016737;28;6939;-63
2023/04/03 01:35:49;;;;;;;;;;;;;;;;;;5016892;28;7121;-63
2023/04/03 01:38:15;;;;;;;;;;;;;;;;;;5032250;28;7194;-64
2023/04/03 01:40:41;;;;;;;;;;;;;;;;;;5016549;28;7020;-63
2023/04/03 01:43:07;;;;;;;;;;;;;;;;;;5016746;28;7152;-64
2023/04/03 01:45:54;;;;;;;;;;;;;;;;;;5016014;28;6852;-63
2023/04/03 01:48:19;;;;;;;;;;;;;;;;;;5016525;28;7196;-64
2023/04/03 01:50:45;;;;;;;;;;;;;;;;;;5016749;28;6951;-64
2023/04/03 01:53:18;;;;;;;;;;;;;;;;;;5016679;28;7016;-63
2023/04/03 01:55:43;;;;;;;;;;;;;;;;;;5016548;28;7256;-64
2023/04/03 01:58:31;;;;;;;;;;;;;;;;;;5016144;28;7257;-64
2023/04/03 02:04:00;;;;;;;;;;;;;;;;;;5016035;28;6977;-63
2023/04/03 02:06:26;;;;;;;;;;;;;;;;;;5016213;28;7246;-63
2023/04/03 02:09:03;;;;;;;;;;;;;;;;;;5016253;28;7239;-63
2023/04/03 02:11:29;;;;;;;;;;;;;;;;;;5016271;28;7038;-63
2023/04/03 02:13:56;;;;;;;;;;;;;;;;;;5015775;28;7037;-64
2023/04/03 02:16:22;;;;;;;;;;;;;;;;;;5015811;28;6965;-63
2023/04/03 02:18:55;;;;;;;;;;;;;;;;;;5015961;28;7099;-63
2023/04/03 02:21:21;;;;;;;;;;;;;;;;;;5016093;28;7224;-64
2023/04/03 02:23:46;;;;;;;;;;;;;;;;;;5015951;28;7139;-63
2023/04/03 02:29:16;;;;;;;;;;;;;;;;;;5015547;28;6737;-63
2023/04/03 02:31:41;;;;;;;;;;;;;;;;;;5031385;28;8450;-63
2023/04/03 02:40:15;;;;;;;;;;;;;;;;;;5015431;28;6673;-68
2023/04/03 02:42:40;;;;;;;;;;;;;;;;;;5015569;28;7225;-68
2023/04/03 02:45:15;;;;;;;;;;;;;;;;;;5015709;28;7449;-68
2023/04/03 02:47:41;;;;;;;;;;;;;;;;;;5015416;28;7118;-68
2023/04/03 02:50:07;;;;;;;;;;;;;;;;;;5015521;28;7199;-68
2023/04/03 02:53:07;;;;;;;;;;;;;;;;;;5015355;28;7080;-68
2023/04/03 02:55:33;;;;;;;;;;;;;;;;;;5015050;28;7057;-68
2023/04/03 02:58:11;;;;;;;;;;;;;;;;;;5014631;28;6923;-68
2023/04/03 03:00:37;;;;;;;;;;;;;;;;;;5015163;28;7358;-68
2023/04/03 03:03:28;;;;;;;;;;;;;;;;;;5016077;28;7036;-65
2023/04/03 03:06:01;;;;;;;;;;;;;;;;;;5031952;28;7236;-68
2023/04/03 03:08:35;;;;;;;;;;;;;;;;;;5034653;28;7426;-63
2023/04/03 03:11:01;;;;;;;;;;;;;;;;;;5034983;28;7219;-63
2023/04/03 03:13:27;;;;;;;;;;;;;;;;;;5034871;28;7175;-63
2023/04/03 03:16:21;;;;;;;;;;;;;;;;;;5033588;28;7174;-64
2023/04/03 03:18:47;;;;;;;;;;;;;;;;;;5034747;28;7017;-64
2023/04/03 03:24:15;;;;;;;;;;;;;;;;;;5034772;28;6713;-64
2023/04/03 03:26:41;;;;;;;;;;;;;;;;;;5034724;28;7140;-64
2023/04/03 03:32:09;;;;;;;;;;;;;;;;;;5034504;28;6934;-63
2023/04/03 03:34:35;;;;;;;;;;;;;;;;;;5034990;28;7214;-64
2023/04/03 03:37:30;;;;;;;;;;;;;;;;;;5034068;28;8551;-63
2023/04/03 03:39:56;;;;;;;;;;;;;;;;;;5034576;28;7238;-63
2023/04/03 03:42:44;;;;;;;;;;;;;;;;;;5034637;28;7378;-64
2023/04/03 03:45:46;;;;;;;;;;;;;;;;;;5034563;28;7151;-64
2023/04/03 03:48:11;;;;;;;;;;;;;;;;;;5034564;28;7221;-63
2023/04/03 03:50:37;;;;;;;;;;;;;;;;;;5034485;28;7042;-64
2023/04/03 03:53:12;;;;;;;;;;;;;;;;;;5035697;28;6788;-64
2023/04/03 03:55:38;;;;;;;;;;;;;;;;;;5034365;28;7152;-64
2023/04/03 03:58:33;;;;;;;;;;;;;;;;;;5034389;28;7119;-63
2023/04/03 04:01:03;;;;;;;;;;;;;;;;;;5034049;28;7115;-64
2023/04/03 04:06:56;;;;;;;;;;;;;;;;;;5034122;28;6685;-63
2023/04/03 04:12:38;;;;;;;;;;;;;;;;;;5038312;28;6926;-63
2023/04/03 04:15:03;;;;;;;;;;;;;;;;;;5038461;28;7057;-63
2023/04/03 04:17:29;;;;;;;;;;;;;;;;;;5037805;28;7085;-63
2023/04/03 04:19:55;;;;;;;;;;;;;;;;;;5038189;28;7152;-63
2023/04/03 04:22:20;;;;;;;;;;;;;;;;;;5038032;28;7043;-63
2023/04/03 04:24:46;;;;;;;;;;;;;;;;;;5037936;28;7330;-63
2023/04/03 04:27:44;;;;;;;;;;;;;;;;;;5037835;28;7244;-63
2023/04/03 04:30:10;;;;;;;;;;;;;;;;;;5037505;28;6959;-63
2023/04/03 04:38:42;;;;;;;;;;;;;;;;;;5037407;28;6946;-63
2023/04/03 04:41:18;;;;;;;;;;;;;;;;;;5037392;28;7017;-63
2023/04/03 04:43:44;;;;;;;;;;;;;;;;;;5037583;28;7056;-63
2023/04/03 04:46:13;;;;;;;;;;;;;;;;;;5037634;28;7384;-63
2023/04/03 04:51:41;;;;;;;;;;;;;;;;;;5037339;28;6689;-64
2023/04/03 04:54:07;;;;;;;;;;;;;;;;;;5037418;28;7178;-63
2023/04/03 04:56:32;;;;;;;;;;;;;;;;;;5037286;28;7270;-63
2023/04/03 05:02:07;;;;;;;;;;;;;;;;;;5034735;28;6681;-63
2023/04/03 05:04:33;;;;;;;;;;;;;;;;;;5037290;28;6963;-63
2023/04/03 05:10:02;;;;;;;;;;;;;;;;;;5036912;28;6950;-64
2023/04/03 05:12:28;;;;;;;;;;;;;;;;;;5037963;28;7086;-64
2023/04/03 05:14:53;;;;;;;;;;;;;;;;;;5038225;28;7181;-63
2023/04/03 05:17:24;;;;;;;;;;;;;;;;;;5037376;28;6981;-64
2023/04/03 05:19:49;;;;;;;;;;;;;;;;;;5035673;28;7215;-64
2023/04/03 05:22:15;;;;;;;;;;;;;;;;;;5037035;28;7356;-63
2023/04/03 05:25:11;;;;;;;;;;;;;;;;;;5036551;28;7777;-64
2023/04/03 05:27:37;;;;;;;;;;;;;;;;;;5016960;28;7201;-64
2023/04/03 05:30:04;;;;;;;;;;;;;;;;;;5017063;28;7169;-64
2023/04/03 05:32:43;;;;;;;;;;;;;;;;;;5016228;28;7104;-64
2023/04/03 05:35:09;;;;;;;;;;;;;;;;;;5035169;28;7150;-64
2023/04/03 05:37:35;;;;;;;;;;;;;;;;;;5036566;28;6954;-64
2023/04/03 05:40:08;;;;;;;;;;;;;;;;;;5035727;28;7157;-64
2023/04/03 05:42:33;;;;;;;;;;;;;;;;;;5035949;28;7027;-64
2023/04/03 05:44:59;;;;;;;;;;;;;;;;;;5033370;28;7175;-63
2023/04/03 05:47:24;;;;;;;;;;;;;;;;;;5018566;28;7061;-64
2023/04/03 05:49:50;;;;;;;;;;;;;;;;;;5016870;28;6973;-63
2023/04/03 05:52:29;;;;;;;;;;;;;;;;;;5016577;28;7371;-63
2023/04/03 05:54:56;;;;;;;;;;;;;;;;;;5019312;28;7286;-63
2023/04/03 05:57:37;;;;;;;;;;;;;;;;;;5023085;28;7131;-63
2023/04/03 06:00:05;;;;;;;;;;;;;;;;;;5022267;28;7073;-64
2023/04/03 06:02:31;;;;;;;;;;;;;;;;;;5016941;28;7012;-63
2023/04/03 06:04:59;;;;;;;;;;;;;;;;;;5015808;28;6844;-63
2023/04/03 06:07:28;;;;;;;;;;;;;;;;;;5029067;28;7148;-63
2023/04/03 06:10:02;;;;;;;;;;;;;;;;;;5034966;28;7091;-63
2023/04/03 06:12:31;;;;;;;;;;;;;;;;;;5031231;28;8738;-64
2023/04/03 06:14:57;;;;;;;;;;;;;;;;;;5015104;28;7060;-63
2023/04/03 06:17:23;;;;;;;;;;;;;;;;;;5023865;28;7034;-64
2023/04/03 06:25:56;;;;;;;;;;;;;;;;;;5017679;28;6731;-64
2023/04/03 06:28:21;;;;;;;;;;;;;;;;;;5018959;28;7170;-63
2023/04/03 06:30:46;;;;;;;;;;;;;;;;;;5023609;28;7205;-63
2023/04/03 06:33:34;;;;;;;;;;;;;;;;;;5036618;28;7106;-63
2023/04/03 06:36:03;;;;;;;;;;;;;;;;;;5035546;28;7136;-64
2023/04/03 06:41:37;;;;;;;;;;;;;;;;;;5035571;28;6922;-64
2023/04/03 06:44:03;;;;;;;;;;;;;;;;;;5021813;28;6991;-64
2023/04/03 06:49:41;;;;;;;;;;;;;;;;;;5033787;28;7415;-64
2023/04/03 06:52:08;;;;;;;;;;;;;;;;;;5018130;28;7306;-64
2023/04/03 06:54:33;;;;;;;;;;;;;;;;;;5014950;28;6818;-64
2023/04/03 07:00:03;;;;;;;;;;;;;;;;;;5019055;28;7016;-64
2023/04/03 07:02:29;;;;;;;;;;;;;;;;;;5034989;28;8173;-63
2023/04/03 07:08:16;;;;;;;;;;;;;;;;;;5014978;28;7451;-63
2023/04/03 07:10:42;;;;;;;;;;;;;;;;;;5027061;28;6906;-63
2023/04/03 07:16:14;;;;;;;;;;;;;;;;;;5034581;28;6708;-64
2023/04/03 07:18:39;;;;;;;;;;;;;;;;;;5034859;28;7233;-63
2023/04/03 07:24:32;;;;;;;;;;;;;;;;;;5034607;28;6981;-63
2023/04/03 07:26:57;;;;;;;;;;;;;;;;;;5034684;28;7811;-64
2023/04/03 07:32:25;;;;;;;;;;;;;;;;;;5030358;28;6693;-64
2023/04/03 07:34:51;;;;;;;;;;;;;;;;;;5014872;28;7390;-64
2023/04/03 07:37:24;;;;;;;;;;;;;;;;;;5014738;28;6929;-64
2023/04/03 07:39:50;;;;;;;;;;;;;;;;;;5014800;28;7178;-64
2023/04/03 07:42:36;;;;;;;;;;;;;;;;;;5014702;28;7062;-64
2023/04/03 07:45:02;;;;;;;;;;;;;;;;;;5019124;28;7450;-64
2023/04/03 07:47:40;;;;;;;;;;;;;;;;;;5018840;28;7123;-64
2023/04/03 07:50:06;;;;;;;;;;;;;;;;;;5018929;28;7260;-63
2023/04/03 07:52:32;;;;;;;;;;;;;;;;;;5018886;28;7173;-64
2023/04/03 07:54:58;;;;;;;;;;;;;;;;;;5018824;28;7409;-63
2023/04/03 07:57:24;;;;;;;;;;;;;;;;;;5042795;28;6950;-64
2023/04/03 07:59:50;;;;;;;;;;;;;;;;;;5038516;28;7234;-64
2023/04/03 08:02:15;;;;;;;;;;;;;;;;;;5036575;28;7219;-64
2023/04/03 08:04:47;;;;;;;;;;;;;;;;;;5038465;28;7384;-63
2023/04/03 08:07:21;;;;;;;;;;;;;;;;;;5037939;28;7212;-63
2023/04/03 08:09:47;;;;;;;;;;;;;;;;;;5037927;28;7405;-63
2023/04/03 08:15:16;;;;;;;;;;;;;;;;;;5037983;28;6693;-64
2023/04/03 08:23:50;;;;;;;;;;;;;;;;;;5019773;28;7097;-65
2023/04/03 08:32:22;;;;;;;;;;;;;;;;;;5017960;28;6678;-65
2023/04/03 08:34:47;;;;;;;;;;;;;;;;;;5018635;28;7402;-66
2023/04/03 08:37:13;;;;;;;;;;;;;;;;;;5017619;28;6946;-65
2023/04/03 08:39:39;;;;;;;;;;;;;;;;;;5017789;28;7188;-64
2023/04/03 08:45:23;;;;;;;;;;;;;;;;;;5020635;28;7061;-64
2023/04/03 08:47:50;;;;;;;;;;;;;;;;;;5017605;28;7276;-63
2023/04/03 08:50:49;;;;;;;;;;;;;;;;;;5017735;28;7121;-64
2023/04/03 08:53:18;;;;;;;;;;;;;;;;;;5017653;28;7161;-65
2023/04/03 08:55:49;;;;;;;;;;;;;;;;;;5016352;28;8427;-65
2023/04/03 08:58:20;;;;;;;;;;;;;;;;;;5017259;28;7376;-64
2023/04/03 09:03:49;;;;;;;;;;;;;;;;;;5057021;28;6704;-65
2023/04/03 09:06:32;;;;;;;;;;;;;;;;;;5055139;28;7359;-65
2023/04/03 09:15:17;;;;;;;;;;;;;;;;;;5036692;28;6673;-64
2023/04/03 09:18:02;;;;;;;;;;;;;;;;;;5036730;28;6969;-65
2023/04/03 09:23:46;;;;;;;;;;;;;;;;;;5017357;28;6950;-64
2023/04/03 09:26:16;;;;;;;;;;;;;;;;;;5019348;28;7407;-64
2023/04/03 09:28:42;;;;;;;;;;;;;;;;;;5035633;28;7061;-65
2023/04/03 09:31:16;;;;;;;;;;;;;;;;;;5036106;28;7374;-65
2023/04/03 09:33:42;;;;;;;;;;;;;;;;;;5036004;28;7066;-66
2023/04/03 09:36:07;;;;;;;;;;;;;;;;;;5036636;28;7319;-65
2023/04/03 09:38:33;;;;;;;;;;;;;;;;;;5036648;28;6858;-64
2023/04/03 09:41:05;;;;;;;;;;;;;;;;;;5017631;28;7105;-64
2023/04/03 09:43:35;;;;;;;;;;;;;;;;;;5016705;28;7052;-65
2023/04/03 09:46:20;;;;;;;;;;;;;;;;;;5016763;28;7038;-64
2023/04/03 09:48:56;;;;;;;;;;;;;;;;;;5016636;28;7214;-66
2023/04/03 09:51:26;;;;;;;;;;;;;;;;;;5016678;28;7443;-64
2023/04/03 09:57:16;;;;;;;;;;;;;;;;;;5035959;28;7196;-66
2023/04/03 09:59:48;;;;;;;;;;;;;;;;;;5017378;28;7171;-64
2023/04/03 10:02:23;;;;;;;;;;;;;;;;;;5014906;28;7547;-64
2023/04/03 10:05:24;;;;;;;;;;;;;;;;;;5016366;28;7191;-64
2023/04/03 10:07:50;;;;;;;;;;;;;;;;;;5019970;28;7143;-63
2023/04/03 10:10:25;;;;;;;;;;;;;;;;;;5014915;28;6865;-63
2023/04/03 10:13:32;;;;;;;;;;;;;;;;;;5015876;28;7033;-63
2023/04/03 10:16:05;;;;;;;;;;;;;;;;;;4997735;28;7382;-63
2023/04/03 10:18:36;;;;;;;;;;;;;;;;;;5033228;28;7209;-64
2023/04/03 10:21:10;;;;;;;;;;;;;;;;;;5035743;28;7646;-63
2023/04/03 10:24:13;;;;;;;;;;;;;;;;;;5036129;28;7130;-63
2023/04/03 10:26:38;;;;;;;;;;;;;;;;;;5030441;28;7210;-64
2023/04/03 10:32:12;;;;;;;;;;;;;;;;;;5035276;28;6685;-63
2023/04/03 10:34:46;;;;;;;;;;;;;;;;;;5035567;28;7386;-63
2023/04/03 10:37:29;;;;;;;;;;;;;;;;;;5034997;28;7202;-64
2023/04/03 10:40:00;;;;;;;;;;;;;;;;;;5035303;28;7072;-63
2023/04/03 10:42:44;;;;;;;;;;;;;;;;;;5035362;28;7119;-63
2023/04/03 10:45:19;;;;;;;;;;;;;;;;;;5016511;28;7165;-63
2023/04/03 10:47:48;;;;;;;;;;;;;;;;;;5030464;28;7620;-64
2023/04/03 10:50:33;;;;;;;;;;;;;;;;;;5022869;28;7408;-64
2023/04/03 11:02:02;;;;;;;;;;;;;;;;;;5014448;28;6967;-64
2023/04/03 11:04:49;;;;;;;;;;;;;;;;;;5015263;28;7052;-63
2023/04/03 11:13:38;;;;;;;;;;;;;;;;;;5014972;28;7423;-63
2023/04/03 11:16:05;;;;;;;;;;;;;;;;;;5014713;28;7164;-64
2023/04/03 11:18:44;;;;;;;;;;;;;;;;;;5031536;28;7275;-63
2023/04/03 11:21:10;;;;;;;;;;;;;;;;;;5034936;28;7112;-64
2023/04/03 11:24:08;;;;;;;;;;;;;;;;;;5035138;28;7069;-64
2023/04/03 11:26:38;;;;;;;;;;;;;;;;;;5034775;28;7182;-64
2023/04/03 11:29:22;;;;;;;;;;;;;;;;;;5034667;28;6944;-64
2023/04/03 11:32:06;;;;;;;;;;;;;;;;;;5034363;28;7187;-64
2023/04/03 11:34:44;;;;;;;;;;;;;;;;;;5023847;28;7496;-64
2023/04/03 11:37:20;;;;;;;;;;;;;;;;;;5034469;28;7053;-65
2023/04/03 11:40:03;;;;;;;;;;;;;;;;;;5034711;28;7210;-64
2023/04/03 11:42:29;;;;;;;;;;;;;;;;;;5034618;28;7194;-64
2023/04/03 11:45:16;;;;;;;;;;;;;;;;;;5033416;28;7176;-64
2023/04/03 11:47:50;;;;;;;;;;;;;;;;;;5034504;28;7079;-63
2023/04/03 11:53:53;;;;;;;;;;;;;;;;;;5034807;28;6926;-63
2023/04/03 11:56:28;;;;;;;;;;;;;;;;;;5034425;28;7144;-63
2023/04/03 11:59:14;;;;;;;;;;;;;;;;;;5035067;28;7231;-63
2023/04/03 12:05:03;;;;;;;;;;;;;;;;;;5034069;28;6942;-64
2023/04/03 12:07:28;;;;;;;;;;;;;;;;;;5034262;28;7341;-63
2023/04/03 12:09:57;;;;;;;;;;;;;;;;;;5034330;28;6957;-63
2023/04/03 12:12:57;;;;;;;;;;;;;;;;;;5034402;28;7618;-64
2023/04/03 12:15:48;;;;;;;;;;;;;;;;;;5034191;28;7245;-64
2023/04/03 12:18:32;;;;;;;;;;;;;;;;;;5034266;28;7604;-64
2023/04/03 12:24:10;;;;;;;;;;;;;;;;;;5034090;28;6936;-63
2023/04/03 12:29:28;;;;;;;;;;;;;;;;;;5036602;28;7013;-63
2023/04/03 12:38:24;;;;;;;;;;;;;;;;;;5037514;28;6900;-63
2023/04/03 12:40:49;;;;;;;;;;;;;;;;;;5037846;28;7224;-63
2023/04/03 12:43:33;;;;;;;;;;;;;;;;;;5037695;28;7115;-64
2023/04/03 12:46:30;;;;;;;;;;;;;;;;;;5038195;28;7148;-64
2023/04/03 12:48:58;;;;;;;;;;;;;;;;;;5038457;28;7392;-63
2023/04/03 12:54:41;;;;;;;;;;;;;;;;;;5037822;28;6935;-64
2023/04/03 12:57:13;;;;;;;;;;;;;;;;;;5038001;28;7142;-64
2023/04/03 12:59:39;;;;;;;;;;;;;;;;;;5037236;28;7418;-63
2023/04/03 13:02:16;;;;;;;;;;;;;;;;;;5023788;28;7199;-63
2023/04/03 13:04:53;;;;;;;;;;;;;;;;;;5028782;28;7151;-68
2023/04/03 13:07:20;;;;;;;;;;;;;;;;;;5036966;28;7028;-71
2023/04/03 13:10:14;;;;;;;;;;;;;;;;;;5036901;28;7272;-64
2023/04/03 13:12:48;;;;;;;;;;;;;;;;;;5037161;28;6981;-63
2023/04/03 13:18:33;;;;;;;;;;;;;;;;;;5037103;28;6977;-68
2023/04/03 13:21:02;;;;;;;;;;;;;;;;;;5036737;28;8293;-68
2023/04/03 13:23:29;;;;;;;;;;;;;;;;;;5036959;28;7269;-68
2023/04/03 13:26:03;;;;;;;;;;;;;;;;;;5036893;28;7349;-68
2023/04/03 13:28:30;;;;;;;;;;;;;;;;;;5036673;28;6967;-68
2023/04/03 13:31:29;;;;;;;;;;;;;;;;;;5036930;28;7386;-68
2023/04/03 13:34:02;;;;;;;;;;;;;;;;;;5036839;28;7285;-68
2023/04/03 13:37:07;;;;;;;;;;;;;;;;;;5037470;28;7405;-69
2023/04/03 13:40:04;;;;;;;;;;;;;;;;;;4995204;28;7294;-69
2023/04/03 13:42:32;;;;;;;;;;;;;;;;;;4987149;28;7411;-69
2023/04/03 13:45:15;;;;;;;;;;;;;;;;;;4977230;28;7579;-68
2023/04/03 13:47:54;;;;;;;;;;;;;;;;;;4992109;28;7593;-68
2023/04/03 13:50:25;;;;;;;;;;;;;;;;;;4993133;28;7164;-69
2023/04/03 13:56:04;;;;;;;;;;;;;;;;;;4994864;28;6813;-70
2023/04/03 13:58:31;;;;;;;;;;;;;;;;;;4986790;28;7402;-70
2023/04/03 14:04:01;;;;;;;;;;;;;;;;;;5009110;28;6972;-64
2023/04/03 14:06:42;;;;;;;;;;;;;;;;;;5014150;28;7434;-70
2023/04/03 14:09:08;;;;;;;;;;;;;;;;;;4995836;28;7097;-70
2023/04/03 14:14:51;;;;;;;;;;;;;;;;;;5019699;28;6860;-70
2023/04/03 14:17:19;;;;;;;;;;;;;;;;;;5033323;28;7394;-71
2023/04/03 14:22:48;;;;;;;;;;;;;;;;;;5035379;28;7294;-70
2023/04/03 14:25:41;;;;;;;;;;;;;;;;;;5035828;28;7217;-70
2023/04/03 14:28:16;;;;;;;;;;;;;;;;;;5033048;28;6838;-71
2023/04/03 14:31:02;;;;;;;;;;;;;;;;;;5035097;28;7178;-70
2023/04/03 14:33:30;;;;;;;;;;;;;;;;;;5026108;28;8862;-70
2023/04/03 14:36:24;;;;;;;;;;;;;;;;;;5028138;28;7178;-70
2023/04/03 14:38:51;;;;;;;;;;;;;;;;;;5035723;28;7409;-70
2023/04/03 14:41:22;;;;;;;;;;;;;;;;;;5035514;28;7101;-70
2023/04/03 14:43:48;;;;;;;;;;;;;;;;;;5035798;28;7038;-70
2023/04/03 14:46:20;;;;;;;;;;;;;;;;;;5035364;28;7601;-70
2023/04/03 14:48:46;;;;;;;;;;;;;;;;;;5035340;28;7139;-70
2023/04/03 14:51:15;;;;;;;;;;;;;;;;;;5034048;28;8451;-70
2023/04/03 14:53:41;;;;;;;;;;;;;;;;;;5026988;28;6989;-70
2023/04/03 14:59:41;;;;;;;;;;;;;;;;;;5034936;28;6756;-70
2023/04/03 15:05:19;;;;;;;;;;;;;;;;;;5034624;28;6932;-71
2023/04/03 15:07:49;;;;;;;;;;;;;;;;;;5034947;28;7528;-71
2023/04/03 15:10:28;;;;;;;;;;;;;;;;;;5034536;28;7260;-70
2023/04/03 15:12:53;;;;;;;;;;;;;;;;;;5034229;28;7207;-70
2023/04/03 15:15:21;;;;;;;;;;;;;;;;;;5034213;28;6935;-70
2023/04/03 15:17:50;;;;;;;;;;;;;;;;;;5033866;28;6960;-70
2023/04/03 15:20:38;;;;;;;;;;;;;;;;;;5034554;28;7161;-69
2023/04/03 15:23:04;;;;;;;;;;;;;;;;;;5033865;28;7210;-70
2023/04/03 15:25:31;;;;;;;;;;;;;;;;;;5033484;28;7213;-70
2023/04/03 15:27:57;;;;;;;;;;;;;;;;;;5033692;28;7022;-70
2023/04/03 15:30:59;;;;;;;;;;;;;;;;;;5034370;28;7175;-70
2023/04/03 15:33:24;;;;;;;;;;;;;;;;;;5034328;28;6984;-70
2023/04/03 15:36:24;;;;;;;;;;;;;;;;;;5034439;28;6975;-70
2023/04/03 15:38:49;;;;;;;;;;;;;;;;;;5034338;28;7203;-70
2023/04/03 15:41:23;;;;;;;;;;;;;;;;;;5034682;28;7224;-70
2023/04/03 15:43:48;;;;;;;;;;;;;;;;;;5034252;28;7087;-70
2023/04/03 15:46:41;;;;;;;;;;;;;;;;;;5034384;28;7238;-70
2023/04/03 15:49:07;;;;;;;;;;;;;;;;;;5034126;28;7555;-71
2023/04/03 15:51:32;;;;;;;;;;;;;;;;;;5034138;28;7236;-70
2023/04/03 15:53:58;;;;;;;;;;;;;;;;;;5026916;28;7312;-70
2023/04/03 15:56:24;;;;;;;;;;;;;;;;;;5014545;28;7154;-70
2023/04/03 15:58:50;;;;;;;;;;;;;;;;;;5025174;28;6945;-69
2023/04/03 16:01:15;;;;;;;;;;;;;;;;;;5034472;28;7188;-70
2023/04/03 16:03:46;;;;;;;;;;;;;;;;;;5033790;28;7244;-70
2023/04/03 16:06:41;;;;;;;;;;;;;;;;;;5038144;28;7143;-71
2023/04/03 16:09:08;;;;;;;;;;;;;;;;;;5038339;28;7109;-70
2023/04/03 16:11:35;;;;;;;;;;;;;;;;;;5039180;28;7143;-71
2023/04/03 16:14:01;;;;;;;;;;;;;;;;;;5038537;28;7027;-71
2023/04/03 16:19:30;;;;;;;;;;;;;;;;;;5030045;28;6930;-71
2023/04/03 16:22:04;;;;;;;;;;;;;;;;;;5035726;28;6801;-71
2023/04/03 16:24:30;;;;;;;;;;;;;;;;;;5038404;28;6906;-70
2023/04/03 16:29:58;;;;;;;;;;;;;;;;;;5031566;28;6705;-70
2023/04/03 16:32:26;;;;;;;;;;;;;;;;;;5018277;28;6974;-70
2023/04/03 16:34:52;;;;;;;;;;;;;;;;;;5018096;28;7186;-70
2023/04/03 16:37:17;;;;;;;;;;;;;;;;;;5017971;28;6791;-70
2023/04/03 16:39:58;;;;;;;;;;;;;;;;;;5018583;28;7157;-70
2023/04/03 16:42:24;;;;;;;;;;;;;;;;;;5036768;28;7139;-70
2023/04/03 16:45:06;;;;;;;;;;;;;;;;;;5017941;28;6875;-70
2023/04/03 16:47:32;;;;;;;;;;;;;;;;;;5017832;28;7267;-70
2023/04/03 16:49:58;;;;;;;;;;;;;;;;;;5017665;28;7181;-70
2023/04/03 16:52:23;;;;;;;;;;;;;;;;;;5017850;28;6861;-70
2023/04/03 16:55:22;;;;;;;;;;;;;;;;;;5022230;28;7390;-70
2023/04/03 16:57:47;;;;;;;;;;;;;;;;;;5037369;28;7199;-70
2023/04/03 17:00:27;;;;;;;;;;;;;;;;;;5037468;28;6986;-70
2023/04/03 17:05:56;;;;;;;;;;;;;;;;;;5037015;28;6961;-70
2023/04/03 17:08:36;;;;;;;;;;;;;;;;;;5036844;28;6927;-70
2023/04/03 17:11:01;;;;;;;;;;;;;;;;;;5037012;28;7159;-70
2023/04/03 17:13:31;;;;;;;;;;;;;;;;;;5037231;28;7389;-70
2023/04/03 17:15:57;;;;;;;;;;;;;;;;;;5036386;28;7020;-70
2023/04/03 17:18:23;;;;;;;;;;;;;;;;;;5037429;28;7033;-70
2023/04/03 17:23:57;;;;;;;;;;;;;;;;;;5036644;28;7143;-70
2023/04/03 17:26:31;;;;;;;;;;;;;;;;;;5036912;28;7188;-70
2023/04/03 17:28:56;;;;;;;;;;;;;;;;;;5036919;28;6934;-70
2023/04/03 17:31:22;;;;;;;;;;;;;;;;;;5036989;28;7114;-70
2023/04/03 17:33:48;;;;;;;;;;;;;;;;;;5077659;23;7957;-63
2023/04/03 17:36:13;;;;;;;;;;;;;;;;;;5035892;28;7207;-65
2023/04/03 17:44:54;;;;;;;;;;;;;;;;;;5036432;28;6690;-65
2023/04/03 17:47:20;;;;;;;;;;;;;;;;;;5036225;28;7350;-65
2023/04/03 17:49:45;;;;;;;;;;;;;;;;;;5036765;28;6954;-65
2023/04/03 17:52:11;;;;;;;;;;;;;;;;;;5036591;28;6989;-65
2023/04/03 17:54:36;;;;;;;;;;;;;;;;;;5036227;28;7603;-65
2023/04/03 18:00:23;;;;;;;;;;;;;;;;;;5033422;28;6693;-65
2023/04/03 18:06:25;;;;;;;;;;;;;;;;;;5016600;28;6686;-65
2023/04/03 18:08:58;;;;;;;;;;;;;;;;;;5036554;28;7083;-65
2023/04/03 18:11:30;;;;;;;;;;;;;;;;;;5016395;28;7120;-65
2023/04/03 18:13:57;;;;;;;;;;;;;;;;;;5015992;28;6954;-65
2023/04/03 18:22:46;;;;;;;;;;;;;;;;;;5015903;28;6931;-65
2023/04/03 18:25:13;;;;;;;;;;;;;;;;;;5014836;28;7390;-65
2023/04/03 18:28:05;;;;;;;;;;;;;;;;;;5015270;28;7120;-65
2023/04/03 18:30:33;;;;;;;;;;;;;;;;;;5016068;28;7034;-65
2023/04/03 18:32:59;;;;;;;;;;;;;;;;;;5016585;28;6806;-65
2023/04/03 18:35:48;;;;;;;;;;;;;;;;;;5015861;28;7139;-65
2023/04/03 18:38:14;;;;;;;;;;;;;;;;;;5015717;28;7117;-65
2023/04/03 18:43:42;;;;;;;;;;;;;;;;;;5015560;28;6685;-65
2023/04/03 18:49:11;;;;;;;;;;;;;;;;;;5015279;28;6736;-65
2023/04/03 18:51:39;;;;;;;;;;;;;;;;;;5015930;28;7160;-65
2023/04/03 18:54:08;;;;;;;;;;;;;;;;;;5029085;28;6965;-65
2023/04/03 18:59:34;;;;;;;;;;;;;;;;;;5015852;28;6980;-65
2023/04/03 19:02:14;;;;;;;;;;;;;;;;;;5015404;28;7342;-65
2023/04/03 19:04:40;;;;;;;;;;;;;;;;;;5015320;28;6990;-65
2023/04/03 19:16:45;;;;;;;;;;;;;;;;;;5014848;28;6817;-65
2023/04/03 19:22:15;;;;;;;;;;;;;;;;;;5054804;28;6913;-65
2023/04/03 19:27:42;;;;;;;;;;;;;;;;;;5055202;28;7135;-65
2023/04/03 19:33:34;;;;;;;;;;;;;;;;;;5048519;28;6677;-65
2023/04/03 19:36:03;;;;;;;;;;;;;;;;;;5034522;28;7218;-65
2023/04/03 19:41:59;;;;;;;;;;;;;;;;;;5034500;28;6681;-65
2023/04/03 19:44:25;;;;;;;;;;;;;;;;;;5034464;28;7195;-65
2023/04/03 19:46:51;;;;;;;;;;;;;;;;;;5042975;28;7004;-65
2023/04/03 19:49:27;;;;;;;;;;;;;;;;;;5054537;28;7158;-65
2023/04/03 19:51:53;;;;;;;;;;;;;;;;;;5051611;28;7112;-66
2023/04/03 19:54:42;;;;;;;;;;;;;;;;;;5034113;28;7090;-65
2023/04/03 19:57:08;;;;;;;;;;;;;;;;;;5032957;28;7864;-66
2023/04/03 19:59:33;;;;;;;;;;;;;;;;;;5025988;28;6942;-65
2023/04/03 20:02:16;;;;;;;;;;;;;;;;;;5030110;28;7156;-65
2023/04/03 20:04:42;;;;;;;;;;;;;;;;;;5025365;28;7115;-65
2023/04/03 20:07:28;;;;;;;;;;;;;;;;;;5014360;28;7571;-65
2023/04/03 20:09:53;;;;;;;;;;;;;;;;;;5030085;28;7558;-65
2023/04/03 20:12:21;;;;;;;;;;;;;;;;;;5016433;28;7191;-65
2023/04/03 20:14:46;;;;;;;;;;;;;;;;;;5014526;28;7374;-65
2023/04/03 20:23:32;;;;;;;;;;;;;;;;;;5014342;28;6670;-65
2023/04/03 20:25:59;;;;;;;;;;;;;;;;;;5027224;28;6948;-66
2023/04/03 20:28:52;;;;;;;;;;;;;;;;;;5019661;28;7285;-65
2023/04/03 20:31:19;;;;;;;;;;;;;;;;;;5014117;28;7182;-65
2023/04/03 20:33:45;;;;;;;;;;;;;;;;;;5014031;28;7353;-65
2023/04/03 20:36:11;;;;;;;;;;;;;;;;;;5018642;28;7145;-66
2023/04/03 20:41:54;;;;;;;;;;;;;;;;;;5016836;28;7001;-65
2023/04/03 20:44:20;;;;;;;;;;;;;;;;;;5014229;28;7573;-65
2023/04/03 20:46:50;;;;;;;;;;;;;;;;;;5014328;28;7107;-65
2023/04/03 20:49:17;;;;;;;;;;;;;;;;;;5014304;28;7345;-65
2023/04/03 20:54:47;;;;;;;;;;;;;;;;;;5017610;28;6681;-65
2023/04/03 20:57:13;;;;;;;;;;;;;;;;;;5017682;28;7012;-65
2023/04/03 20:59:41;;;;;;;;;;;;;;;;;;5017700;28;7203;-65
2023/04/03 21:02:07;;;;;;;;;;;;;;;;;;5017938;28;7198;-65
2023/04/03 21:04:38;;;;;;;;;;;;;;;;;;5017614;28;6977;-65
2023/04/03 21:07:22;;;;;;;;;;;;;;;;;;5017577;28;7027;-65
2023/04/03 21:10:06;;;;;;;;;;;;;;;;;;5017627;28;6931;-65
2023/04/03 21:12:49;;;;;;;;;;;;;;;;;;5018626;28;7104;-65
2023/04/03 21:15:33;;;;;;;;;;;;;;;;;;5016956;28;7341;-65
2023/04/03 21:18:29;;;;;;;;;;;;;;;;;;5017281;28;6803;-65
2023/04/03 21:20:55;;;;;;;;;;;;;;;;;;5020322;28;7216;-65
2023/04/03 21:30:04;;;;;;;;;;;;;;;;;;5016997;28;6944;-65
2023/04/03 21:32:30;;;;;;;;;;;;;;;;;;5017116;28;8215;-65
2023/04/03 21:34:56;;;;;;;;;;;;;;;;;;5011055;28;6962;-65
2023/04/03 21:40:25;;;;;;;;;;;;;;;;;;5016761;28;6938;-65
2023/04/03 21:45:55;;;;;;;;;;;;;;;;;;5016600;28;6925;-65
2023/04/03 21:48:21;;;;;;;;;;;;;;;;;;5016799;28;7172;-65
2023/04/03 21:53:52;;;;;;;;;;;;;;;;;;5016583;28;6689;-65
2023/04/03 21:56:21;;;;;;;;;;;;;;;;;;5016621;28;6993;-65
2023/04/03 21:58:46;;;;;;;;;;;;;;;;;;5016617;28;7380;-65
2023/04/03 22:04:28;;;;;;;;;;;;;;;;;;5016260;28;6697;-65
2023/04/03 22:06:56;;;;;;;;;;;;;;;;;;5016051;28;7148;-65
2023/04/03 22:12:25;;;;;;;;;;;;;;;;;;5016071;28;6677;-66
2023/04/03 22:14:50;;;;;;;;;;;;;;;;;;5029293;28;7133;-65
2023/04/03 22:17:16;;;;;;;;;;;;;;;;;;5034886;28;8415;-65